Time;durP1;ratioP1;P1;durP2;ratioP2;P2;SDS_P1;SDS_P2;PMS_P1;PMS_P2;Temp;Humidity;BMP_temperature;BMP_pressure;BME280_temperature;BME280_humidity;BME280_pressure;Samples;Min_cycle;Max_cycle;Signal;HPM_P1;HPM_P2
2021/01/12 00:01:39;;;;;;;18.73;8.60;;;2.20;99.90;;;;;;4075579;29;20488;-59
2021/01/12 00:03:41;;;;;;;18.93;8.57;;;2.20;99.90;;;;;;4073140;29;20469;-60
2021/01/12 00:05:43;;;;;;;18.57;7.97;;;2.20;99.90;;;;;;4074785;29;20783;-60
2021/01/12 00:07:45;;;;;;;19.20;9.30;;;2.20;99.90;;;;;;4074098;29;20485;-60
2021/01/12 00:09:46;;;;;;;17.77;8.87;;;2.30;99.90;;;;;;4075551;29;20585;-60
2021/01/12 00:11:47;;;;;;;19.27;9.60;;;2.30;99.90;;;;;;4074088;29;21927;-60
2021/01/12 00:13:49;;;;;;;18.10;8.63;;;2.30;99.90;;;;;;4074755;29;20484;-60
2021/01/12 00:15:50;;;;;;;19.10;9.00;;;2.30;99.90;;;;;;4076280;29;20504;-61
2021/01/12 00:17:52;;;;;;;21.13;9.50;;;2.30;99.90;;;;;;4074366;29;20539;-60
2021/01/12 00:19:53;;;;;;;20.47;9.00;;;2.30;99.90;;;;;;4074770;29;20951;-60
2021/01/12 00:21:56;;;;;;;20.13;9.27;;;2.40;99.90;;;;;;4074643;29;20476;-60
2021/01/12 00:23:58;;;;;;;19.53;9.10;;;2.40;99.90;;;;;;4074282;29;20484;-60
2021/01/12 00:25:59;;;;;;;18.17;9.30;;;2.40;99.90;;;;;;4073728;29;20481;-60
2021/01/12 00:28:00;;;;;;;20.13;9.40;;;2.40;99.90;;;;;;4076170;29;20476;-60
2021/01/12 00:30:02;;;;;;;19.13;8.73;;;2.30;99.90;;;;;;4073332;29;20500;-60
2021/01/12 00:32:04;;;;;;;17.37;8.27;;;2.30;99.90;;;;;;4075886;29;20471;-60
2021/01/12 00:34:06;;;;;;;20.00;9.00;;;2.30;99.90;;;;;;4074429;29;20512;-60
2021/01/12 00:36:08;;;;;;;18.60;8.53;;;2.30;99.90;;;;;;4073711;29;21008;-60
2021/01/12 00:38:10;;;;;;;17.00;8.47;;;2.30;99.90;;;;;;4073691;29;20475;-60
2021/01/12 00:40:13;;;;;;;14.90;8.03;;;2.40;99.90;;;;;;4075670;29;20475;-60
2021/01/12 00:42:14;;;;;;;16.13;7.70;;;2.30;99.90;;;;;;4074748;29;21010;-60
2021/01/12 00:44:15;;;;;;;14.90;6.87;;;2.30;99.90;;;;;;4075057;29;20479;-60
2021/01/12 00:46:17;;;;;;;13.10;7.20;;;2.40;99.90;;;;;;4073784;29;20548;-60
2021/01/12 00:48:18;;;;;;;15.40;7.20;;;2.30;99.90;;;;;;4074747;29;20883;-60
2021/01/12 00:50:19;;;;;;;13.87;7.10;;;2.30;99.90;;;;;;4073855;29;20493;-60
2021/01/12 00:52:21;;;;;;;12.87;6.60;;;2.30;99.90;;;;;;4074227;29;20471;-60
2021/01/12 00:54:24;;;;;;;12.10;6.83;;;2.30;99.90;;;;;;4072501;29;20495;-60
2021/01/12 00:56:25;;;;;;;14.17;6.60;;;2.30;99.90;;;;;;4073745;29;20477;-60
2021/01/12 00:58:26;;;;;;;14.53;7.13;;;2.30;99.90;;;;;;4074228;29;20481;-60
2021/01/12 01:00:28;;;;;;;13.77;6.87;;;2.30;99.90;;;;;;4074427;29;20571;-60
2021/01/12 01:02:29;;;;;;;14.60;6.70;;;2.30;99.90;;;;;;4074655;29;20560;-60
2021/01/12 01:04:31;;;;;;;13.57;7.00;;;2.30;99.90;;;;;;4073501;29;20474;-60
2021/01/12 01:06:32;;;;;;;13.80;6.60;;;2.30;99.90;;;;;;4074590;29;20480;-60
2021/01/12 01:08:33;;;;;;;13.33;6.53;;;2.30;99.90;;;;;;4074742;29;20509;-61
2021/01/12 01:10:38;;;;;;;11.73;6.00;;;2.30;99.90;;;;;;4076779;29;20487;-61
2021/01/12 01:12:39;;;;;;;13.10;6.43;;;2.30;99.90;;;;;;4075193;29;20496;-61
2021/01/12 01:14:41;;;;;;;11.60;5.70;;;2.30;99.90;;;;;;4076269;29;20478;-64
2021/01/12 01:16:43;;;;;;;11.77;6.23;;;2.30;99.90;;;;;;4075046;29;20487;-61
2021/01/12 01:18:44;;;;;;;11.97;6.63;;;2.30;99.90;;;;;;4075270;29;20482;-62
2021/01/12 01:20:46;;;;;;;11.63;5.87;;;2.30;99.90;;;;;;4076915;29;20489;-61
2021/01/12 01:22:47;;;;;;;11.33;6.13;;;2.30;99.90;;;;;;4075248;29;22228;-62
2021/01/12 01:24:48;;;;;;;10.40;5.43;;;2.30;99.90;;;;;;4075335;29;20529;-61
2021/01/12 01:26:56;;;;;;;9.93;5.27;;;2.30;99.90;;;;;;4075550;29;20477;-62
2021/01/12 01:28:57;;;;;;;8.63;4.70;;;2.30;99.90;;;;;;4074884;29;20521;-61
2021/01/12 01:30:59;;;;;;;9.60;5.07;;;2.30;99.90;;;;;;4073925;29;20500;-62
2021/01/12 01:33:00;;;;;;;11.23;5.97;;;2.30;99.90;;;;;;4074105;29;20496;-62
2021/01/12 01:35:01;;;;;;;12.03;5.77;;;2.30;99.90;;;;;;4076350;29;20477;-61
2021/01/12 01:37:03;;;;;;;11.87;6.60;;;2.30;99.90;;;;;;4075883;29;20477;-62
2021/01/12 01:39:05;;;;;;;11.63;6.37;;;2.30;99.90;;;;;;4074572;29;20472;-61
2021/01/12 01:41:08;;;;;;;11.83;6.30;;;2.30;99.90;;;;;;4074473;29;22504;-65
2021/01/12 01:43:19;;;;;;;11.50;6.23;;;2.30;99.90;;;;;;4075550;29;20477;-62
2021/01/12 01:45:23;;;;;;;9.17;5.60;;;2.30;99.90;;;;;;4074936;29;21224;-62
2021/01/12 01:47:24;;;;;;;11.50;5.83;;;2.30;99.90;;;;;;4075668;29;20559;-62
2021/01/12 01:49:25;;;;;;;9.00;5.00;;;2.30;99.90;;;;;;4075854;29;20493;-62
2021/01/12 01:51:27;;;;;;;10.90;5.27;;;2.30;99.90;;;;;;4074648;29;20474;-62
2021/01/12 01:53:29;;;;;;;11.93;6.10;;;2.30;99.90;;;;;;4075227;29;20471;-62
2021/01/12 01:55:30;;;;;;;11.07;5.50;;;2.30;99.90;;;;;;4073733;29;20525;-61
2021/01/12 01:57:32;;;;;;;12.50;5.93;;;2.30;99.90;;;;;;4075060;29;20509;-62
2021/01/12 01:59:35;;;;;;;9.07;5.17;;;2.30;99.90;;;;;;4072836;29;20477;-62
2021/01/12 02:01:36;;;;;;;11.70;5.87;;;2.30;99.90;;;;;;4072356;29;20530;-60
2021/01/12 02:03:44;;;;;;;9.90;5.40;;;2.30;99.90;;;;;;4074019;29;20613;-63
2021/01/12 02:05:50;;;;;;;9.27;4.97;;;2.30;99.90;;;;;;4073146;29;20498;-62
2021/01/12 02:07:53;;;;;;;9.90;4.97;;;2.30;99.90;;;;;;4076073;29;21202;-62
2021/01/12 02:09:55;;;;;;;10.23;5.23;;;2.40;99.90;;;;;;4076195;29;20558;-63
2021/01/12 02:11:58;;;;;;;10.43;5.30;;;2.40;99.90;;;;;;4074343;29;20512;-64
2021/01/12 02:14:03;;;;;;;10.50;5.50;;;2.40;99.90;;;;;;4073843;29;20531;-62
2021/01/12 02:16:07;;;;;;;9.80;5.40;;;2.40;99.90;;;;;;4075019;29;20522;-64
2021/01/12 02:18:10;;;;;;;11.17;5.93;;;2.40;99.90;;;;;;4074016;29;20478;-63
2021/01/12 02:20:13;;;;;;;14.93;6.00;;;2.40;99.90;;;;;;4074420;29;20477;-64
2021/01/12 02:22:20;;;;;;;11.07;5.70;;;2.40;99.90;;;;;;4075542;29;20600;-63
2021/01/12 02:24:22;;;;;;;10.70;5.87;;;2.40;99.90;;;;;;4074314;29;20565;-62
2021/01/12 02:26:25;;;;;;;12.03;5.73;;;2.40;99.90;;;;;;4074629;29;20511;-62
2021/01/12 02:28:26;;;;;;;12.20;5.80;;;2.40;99.90;;;;;;4073692;29;20929;-62
2021/01/12 02:30:27;;;;;;;13.30;6.40;;;2.40;99.90;;;;;;4072253;29;20494;-63
2021/01/12 02:32:29;;;;;;;14.57;6.87;;;2.40;99.90;;;;;;4073665;29;20480;-62
2021/01/12 02:34:30;;;;;;;14.30;7.30;;;2.30;99.90;;;;;;4074047;29;20573;-63
2021/01/12 02:36:33;;;;;;;10.77;5.93;;;2.30;99.90;;;;;;4076027;29;20555;-62
2021/01/12 02:38:35;;;;;;;16.03;7.70;;;2.30;99.90;;;;;;4073123;29;20481;-62
2021/01/12 02:40:37;;;;;;;13.20;6.80;;;2.30;99.90;;;;;;4075379;29;20543;-63
2021/01/12 02:42:42;;;;;;;14.47;7.07;;;2.30;99.90;;;;;;4072790;29;20843;-63
2021/01/12 02:44:44;;;;;;;14.20;7.07;;;2.20;99.90;;;;;;4073825;29;20484;-62
2021/01/12 02:46:45;;;;;;;14.90;6.63;;;2.20;99.90;;;;;;4073603;29;20496;-63
2021/01/12 02:48:47;;;;;;;14.10;6.87;;;2.30;99.90;;;;;;4073022;29;20502;-62
2021/01/12 02:50:48;;;;;;;11.43;6.23;;;2.20;99.90;;;;;;4073845;29;21031;-63
2021/01/12 02:52:49;;;;;;;10.80;5.93;;;2.20;99.90;;;;;;4074411;29;20476;-64
2021/01/12 02:54:51;;;;;;;12.07;6.40;;;2.20;99.90;;;;;;4073822;29;20477;-62
2021/01/12 02:56:53;;;;;;;11.73;5.97;;;2.20;99.90;;;;;;4073266;29;20485;-62
2021/01/12 02:58:54;;;;;;;14.10;6.20;;;2.20;99.90;;;;;;4074168;29;20470;-62
2021/01/12 03:00:55;;;;;;;9.70;5.20;;;2.30;99.90;;;;;;4076359;29;20523;-62
2021/01/12 03:02:57;;;;;;;9.20;5.03;;;2.30;99.90;;;;;;4073006;29;20482;-62
2021/01/12 03:04:58;;;;;;;11.90;5.87;;;2.30;99.90;;;;;;4072190;29;20473;-63
2021/01/12 03:06:59;;;;;;;11.70;5.87;;;2.30;99.90;;;;;;4074878;29;21321;-62
2021/01/12 03:09:01;;;;;;;10.30;5.70;;;2.30;99.90;;;;;;4074271;29;20498;-63
2021/01/12 03:11:02;;;;;;;11.67;5.73;;;2.30;99.90;;;;;;4072248;29;20525;-62
2021/01/12 03:13:04;;;;;;;11.97;6.10;;;2.30;99.90;;;;;;4072136;29;20477;-62
2021/01/12 03:15:07;;;;;;;11.40;5.67;;;2.30;99.90;;;;;;4073125;29;20509;-63
2021/01/12 03:17:09;;;;;;;12.83;6.13;;;2.40;99.90;;;;;;4074908;29;20468;-61
2021/01/12 03:19:11;;;;;;;12.40;5.80;;;2.30;99.90;;;;;;4074265;29;20977;-61
2021/01/12 03:21:13;;;;;;;12.23;6.40;;;2.30;99.90;;;;;;4073150;29;20472;-62
2021/01/12 03:23:14;;;;;;;11.23;6.13;;;2.30;99.90;;;;;;4074528;29;20509;-61
2021/01/12 03:25:17;;;;;;;12.80;5.80;;;2.30;99.90;;;;;;4072464;29;20554;-61
2021/01/12 03:27:18;;;;;;;9.07;4.93;;;2.30;99.90;;;;;;4073066;29;20584;-61
2021/01/12 03:29:20;;;;;;;9.00;4.83;;;2.30;99.90;;;;;;4074574;29;20510;-61
2021/01/12 03:31:21;;;;;;;10.77;5.67;;;2.30;99.90;;;;;;4073573;29;20472;-60
2021/01/12 03:33:23;;;;;;;10.17;5.40;;;2.30;99.90;;;;;;4074691;29;20477;-59
2021/01/12 03:35:24;;;;;;;11.93;5.43;;;2.30;99.90;;;;;;4073043;29;20477;-62
2021/01/12 03:37:25;;;;;;;9.90;4.93;;;2.30;99.90;;;;;;4073556;29;20472;-61
2021/01/12 03:39:27;;;;;;;9.67;5.50;;;2.30;99.90;;;;;;4075230;29;22459;-62
2021/01/12 03:41:28;;;;;;;10.00;4.90;;;2.30;99.90;;;;;;4074015;29;20493;-60
2021/01/12 03:43:29;;;;;;;10.07;5.23;;;2.30;99.90;;;;;;4074569;29;20981;-60
2021/01/12 03:45:32;;;;;;;10.70;5.40;;;2.30;99.90;;;;;;4071871;29;20486;-62
2021/01/12 03:47:33;;;;;;;10.77;4.77;;;2.40;99.90;;;;;;4074670;29;20473;-60
2021/01/12 03:49:34;;;;;;;8.27;4.60;;;2.30;99.90;;;;;;4072855;29;20995;-59
2021/01/12 03:51:36;;;;;;;9.10;4.53;;;2.30;99.90;;;;;;4073142;29;20478;-60
2021/01/12 03:53:37;;;;;;;7.73;4.53;;;2.30;99.90;;;;;;4074752;29;20983;-60
2021/01/12 03:55:38;;;;;;;8.33;4.83;;;2.30;99.90;;;;;;4072675;29;20488;-60
2021/01/12 03:57:39;;;;;;;6.57;3.40;;;2.30;99.90;;;;;;4073428;29;20468;-59
2021/01/12 03:59:41;;;;;;;6.73;3.50;;;2.40;99.90;;;;;;4073282;29;20671;-60
2021/01/12 04:01:44;;;;;;;7.00;3.83;;;2.40;99.90;;;;;;4071761;29;20487;-60
2021/01/12 04:03:45;;;;;;;6.17;3.43;;;2.40;99.90;;;;;;4073056;29;20495;-60
2021/01/12 04:05:46;;;;;;;6.47;3.53;;;2.40;99.90;;;;;;4074461;29;20837;-60
2021/01/12 04:07:48;;;;;;;7.90;4.17;;;2.40;99.90;;;;;;4075777;29;20476;-60
2021/01/12 04:09:50;;;;;;;6.87;3.60;;;2.40;99.90;;;;;;4072333;29;21253;-60
2021/01/12 04:11:51;;;;;;;8.20;3.50;;;2.40;99.90;;;;;;4074494;29;20481;-60
2021/01/12 04:13:52;;;;;;;7.23;3.03;;;2.40;99.90;;;;;;4075838;29;20490;-60
2021/01/12 04:15:54;;;;;;;6.03;3.17;;;2.40;99.90;;;;;;4072684;29;20508;-60
2021/01/12 04:17:56;;;;;;;7.13;3.70;;;2.40;99.90;;;;;;4073444;29;20480;-60
2021/01/12 04:19:57;;;;;;;5.57;3.27;;;2.40;99.90;;;;;;4073378;29;20480;-60
2021/01/12 04:21:59;;;;;;;7.63;3.33;;;2.50;99.90;;;;;;4071703;29;20486;-59
2021/01/12 04:24:00;;;;;;;5.67;2.87;;;2.40;99.90;;;;;;4074292;29;20477;-61
2021/01/12 04:26:01;;;;;;;5.00;2.93;;;2.50;99.90;;;;;;4073331;29;22016;-60
2021/01/12 04:28:03;;;;;;;5.00;2.80;;;2.50;99.90;;;;;;4071457;29;20474;-60
2021/01/12 04:30:05;;;;;;;5.53;2.90;;;2.50;99.90;;;;;;4072556;29;21027;-61
2021/01/12 04:32:07;;;;;;;4.83;2.50;;;2.50;99.90;;;;;;4075265;29;20567;-61
2021/01/12 04:34:09;;;;;;;3.87;2.20;;;2.50;99.90;;;;;;4077556;29;20519;-61
2021/01/12 04:36:10;;;;;;;4.33;2.50;;;2.40;99.90;;;;;;4075250;29;20479;-61
2021/01/12 04:38:12;;;;;;;5.27;2.37;;;2.50;99.90;;;;;;4076461;29;20489;-61
2021/01/12 04:40:13;;;;;;;4.47;2.50;;;2.50;99.90;;;;;;4076060;29;20523;-61
2021/01/12 04:42:15;;;;;;;4.23;2.70;;;2.40;99.90;;;;;;4076059;29;20487;-61
2021/01/12 04:44:16;;;;;;;4.53;2.73;;;2.40;99.90;;;;;;4076431;29;20468;-61
2021/01/12 04:46:17;;;;;;;4.73;2.50;;;2.40;99.90;;;;;;4076231;29;20492;-61
2021/01/12 04:48:19;;;;;;;7.37;2.70;;;2.40;99.90;;;;;;4074607;29;20474;-61
2021/01/12 04:50:21;;;;;;;3.97;2.37;;;2.40;99.90;;;;;;4076904;29;20493;-61
2021/01/12 04:52:22;;;;;;;4.00;2.37;;;2.40;99.90;;;;;;4078810;29;20489;-62
2021/01/12 04:54:30;;;;;;;3.70;2.30;;;2.40;99.90;;;;;;4075751;29;20508;-61
2021/01/12 04:56:32;;;;;;;5.60;2.30;;;2.40;99.90;;;;;;4076486;29;20516;-61
2021/01/12 04:58:40;;;;;;;4.23;2.37;;;2.40;99.90;;;;;;4076851;29;20476;-61
2021/01/12 05:00:42;;;;;;;4.60;2.77;;;2.30;99.90;;;;;;4075140;29;20509;-61
2021/01/12 05:03:01;;;;;;;3.50;2.23;;;2.30;99.90;;;;;;4073986;29;20493;-61
2021/01/12 05:05:04;;;;;;;4.60;2.00;;;2.30;99.90;;;;;;4076074;29;20468;-61
2021/01/12 05:07:08;;;;;;;3.80;2.20;;;2.30;99.90;;;;;;4076620;29;20559;-61
2021/01/12 05:09:09;;;;;;;2.93;2.00;;;2.30;99.90;;;;;;4078080;29;20499;-61
2021/01/12 05:11:12;;;;;;;4.83;2.20;;;2.30;99.90;;;;;;4076501;29;20508;-61
2021/01/12 05:13:13;;;;;;;2.67;1.90;;;2.30;99.90;;;;;;4076822;29;20477;-61
2021/01/12 05:15:18;;;;;;;3.27;2.00;;;2.30;99.90;;;;;;4075038;29;20479;-62
2021/01/12 05:17:20;;;;;;;3.13;2.00;;;2.30;99.90;;;;;;4073870;29;20496;-62
2021/01/12 05:19:24;;;;;;;2.80;2.00;;;2.30;99.90;;;;;;4076589;29;20554;-63
2021/01/12 05:21:26;;;;;;;3.10;1.60;;;2.30;99.90;;;;;;4075154;29;20860;-62
2021/01/12 05:23:30;;;;;;;3.03;1.90;;;2.20;99.90;;;;;;4073838;29;20975;-62
2021/01/12 05:25:33;;;;;;;3.50;1.80;;;2.30;99.90;;;;;;4077383;29;20482;-61
2021/01/12 05:27:35;;;;;;;3.30;1.60;;;2.20;99.90;;;;;;4074765;29;20954;-62
2021/01/12 05:29:38;;;;;;;2.40;1.70;;;2.30;99.90;;;;;;4074931;29;20512;-61
2021/01/12 05:31:40;;;;;;;2.67;1.50;;;2.20;99.90;;;;;;4074112;29;20542;-64
2021/01/12 05:33:42;;;;;;;2.57;1.60;;;2.20;99.90;;;;;;4076029;29;20582;-62
2021/01/12 05:35:46;;;;;;;3.13;1.60;;;2.20;99.90;;;;;;4077281;29;21000;-62
2021/01/12 05:37:47;;;;;;;3.23;1.87;;;2.20;99.90;;;;;;4074719;29;20543;-62
2021/01/12 05:39:53;;;;;;;4.40;1.77;;;2.20;99.90;;;;;;4076255;29;20475;-62
2021/01/12 05:41:55;;;;;;;3.73;2.00;;;2.20;99.90;;;;;;4076506;29;20480;-62
2021/01/12 05:43:57;;;;;;;2.13;1.40;;;2.20;99.90;;;;;;4074420;29;20481;-61
2021/01/12 05:46:05;;;;;;;5.40;1.57;;;2.20;99.90;;;;;;4076731;29;20500;-61
2021/01/12 05:48:08;;;;;;;2.30;1.50;;;2.20;99.90;;;;;;4075351;29;21282;-62
2021/01/12 05:50:21;;;;;;;2.30;1.37;;;2.20;99.90;;;;;;4072618;29;20585;-61
2021/01/12 05:52:26;;;;;;;1.70;1.20;;;2.20;99.90;;;;;;4075637;29;20483;-61
2021/01/12 05:54:36;;;;;;;1.67;1.20;;;2.20;99.90;;;;;;4075406;29;20489;-61
2021/01/12 05:56:42;;;;;;;1.97;1.20;;;2.20;99.90;;;;;;4074988;29;20513;-63
2021/01/12 05:58:50;;;;;;;2.33;1.50;;;2.20;99.90;;;;;;4075446;29;21062;-62
2021/01/12 06:00:54;;;;;;;1.73;1.20;;;2.20;99.90;;;;;;4074736;29;20480;-61
2021/01/12 06:02:57;;;;;;;1.57;1.10;;;2.20;99.90;;;;;;4074364;29;20478;-61
2021/01/12 06:04:59;;;;;;;1.63;1.03;;;2.20;99.90;;;;;;4073851;29;20480;-61
2021/01/12 06:07:01;;;;;;;2.27;1.27;;;2.20;99.90;;;;;;4075728;29;20797;-61
2021/01/12 06:09:03;;;;;;;2.00;1.10;;;2.20;99.90;;;;;;4075292;29;20557;-61
2021/01/12 06:11:07;;;;;;;1.70;1.20;;;2.20;99.90;;;;;;4074826;29;20488;-61
2021/01/12 06:13:13;;;;;;;1.70;1.30;;;2.20;99.90;;;;;;4077168;29;20481;-61
2021/01/12 06:15:17;;;;;;;2.17;1.20;;;2.20;99.90;;;;;;4074395;29;20468;-61
2021/01/12 06:17:19;;;;;;;2.10;1.20;;;2.20;99.90;;;;;;4073376;29;20480;-62
2021/01/12 06:19:21;;;;;;;1.93;1.27;;;2.30;99.90;;;;;;4074294;29;20553;-61
2021/01/12 06:21:26;;;;;;;2.03;1.30;;;2.20;99.90;;;;;;4074493;29;21005;-61
2021/01/12 06:23:37;;;;;;;3.00;1.30;;;2.30;99.90;;;;;;4074748;29;20947;-61
2021/01/12 06:25:39;;;;;;;2.63;1.30;;;2.30;99.90;;;;;;4074103;29;20464;-61
2021/01/12 06:27:40;;;;;;;1.67;1.40;;;2.30;99.90;;;;;;4075786;29;20505;-61
2021/01/12 06:29:44;;;;;;;2.80;1.20;;;2.20;99.90;;;;;;4073881;29;20489;-61
2021/01/12 06:31:46;;;;;;;2.27;1.40;;;2.30;99.90;;;;;;4073116;29;20893;-61
2021/01/12 06:33:56;;;;;;;1.93;1.20;;;2.30;99.90;;;;;;4075388;29;20949;-62
2021/01/12 06:36:01;;;;;;;2.03;1.30;;;2.20;99.90;;;;;;4073803;29;20959;-60
2021/01/12 06:38:05;;;;;;;1.67;1.10;;;2.20;99.90;;;;;;4073772;29;20497;-61
2021/01/12 06:40:09;;;;;;;2.73;0.80;;;2.30;99.90;;;;;;4073113;29;20467;-62
2021/01/12 06:42:11;;;;;;;0.90;0.70;;;2.30;99.90;;;;;;4074403;29;20502;-62
2021/01/12 06:44:21;;;;;;;1.20;0.70;;;2.30;99.90;;;;;;4073605;29;20478;-61
2021/01/12 06:46:24;;;;;;;1.33;0.90;;;2.30;99.90;;;;;;4073990;29;20514;-61
2021/01/12 06:48:27;;;;;;;0.80;0.60;;;2.30;99.90;;;;;;4074632;29;20505;-62
2021/01/12 06:50:32;;;;;;;1.13;0.80;;;2.30;99.90;;;;;;4073953;29;20493;-61
2021/01/12 06:52:39;;;;;;;1.10;0.63;;;2.40;99.90;;;;;;4073066;29;20530;-61
2021/01/12 06:54:41;;;;;;;1.27;0.90;;;2.30;99.90;;;;;;4073060;29;20532;-65
2021/01/12 06:56:46;;;;;;;1.30;0.60;;;2.30;99.90;;;;;;4073586;29;20486;-61
2021/01/12 06:58:47;;;;;;;1.00;0.60;;;2.30;99.90;;;;;;4071140;29;20503;-61
2021/01/12 07:00:59;;;;;;;0.77;0.60;;;2.30;99.90;;;;;;4071553;29;23187;-66
2021/01/12 07:03:11;;;;;;;1.47;0.70;;;2.30;99.90;;;;;;4069406;29;21250;-59
2021/01/12 07:05:15;;;;;;;0.83;0.70;;;2.30;99.90;;;;;;4070454;29;20464;-60
2021/01/12 07:07:20;;;;;;;0.90;0.63;;;2.40;99.90;;;;;;4073857;29;20484;-61
2021/01/12 07:09:24;;;;;;;0.90;0.60;;;2.40;99.90;;;;;;4072234;29;20501;-60
2021/01/12 07:11:25;;;;;;;1.17;0.80;;;2.40;99.90;;;;;;4073157;29;21202;-61
2021/01/12 07:13:35;;;;;;;1.50;0.80;;;2.40;99.90;;;;;;4071858;29;20481;-61
2021/01/12 07:15:44;;;;;;;1.70;0.80;;;2.40;99.90;;;;;;4071294;29;21011;-60
2021/01/12 07:17:47;;;;;;;1.07;0.73;;;2.30;99.90;;;;;;4071309;29;20481;-60
2021/01/12 07:19:49;;;;;;;1.43;0.70;;;2.40;99.90;;;;;;4070146;29;20474;-62
2021/01/12 07:21:50;;;;;;;0.70;0.60;;;2.40;99.90;;;;;;4071007;29;20536;-61
2021/01/12 07:24:03;;;;;;;1.00;0.70;;;2.40;99.90;;;;;;4072072;29;20493;-61
2021/01/12 07:26:05;;;;;;;0.80;0.60;;;2.40;99.90;;;;;;4069810;29;20496;-61
2021/01/12 07:28:09;;;;;;;0.77;0.53;;;2.40;99.90;;;;;;4070172;29;21027;-61
2021/01/12 07:30:11;;;;;;;1.00;0.70;;;2.40;99.90;;;;;;4071259;29;21164;-61
2021/01/12 07:32:23;;;;;;;0.57;0.53;;;2.40;99.90;;;;;;4071913;29;20485;-62
2021/01/12 07:34:25;;;;;;;0.77;0.60;;;2.40;99.90;;;;;;4071693;29;20481;-61
2021/01/12 07:36:27;;;;;;;0.77;0.60;;;2.40;99.90;;;;;;4072237;29;20487;-61
2021/01/12 07:38:30;;;;;;;0.77;0.68;;;2.40;99.90;;;;;;4069863;29;21118;-61
2021/01/12 07:40:33;;;;;;;0.50;0.50;;;2.50;99.90;;;;;;4071235;29;20222;-61
2021/01/12 07:42:35;;;;;;;1.03;0.73;;;2.50;99.90;;;;;;4073590;29;20482;-61
2021/01/12 07:44:36;;;;;;;0.90;0.60;;;2.50;99.90;;;;;;4074477;29;20513;-62
2021/01/12 07:46:39;;;;;;;0.60;0.60;;;2.50;99.90;;;;;;4074304;29;20508;-61
2021/01/12 07:48:41;;;;;;;0.60;0.50;;;2.50;99.90;;;;;;4072666;29;20482;-61
2021/01/12 07:50:44;;;;;;;0.60;0.60;;;2.50;99.90;;;;;;4073358;29;20513;-61
2021/01/12 07:52:47;;;;;;;1.20;0.97;;;2.50;99.90;;;;;;4068971;29;20457;-61
2021/01/12 07:54:48;;;;;;;1.10;1.00;;;2.60;99.90;;;;;;4070862;29;20488;-62
2021/01/12 07:56:52;;;;;;;1.60;1.20;;;2.70;99.90;;;;;;4069629;29;20278;-61
2021/01/12 07:58:53;;;;;;;2.03;0.98;;;2.70;99.90;;;;;;4070088;29;20521;-63
2021/01/12 08:00:55;;;;;;;1.00;0.73;;;2.70;99.90;;;;;;4069842;29;20466;-62
2021/01/12 08:02:56;;;;;;;3.30;0.90;;;2.80;99.90;;;;;;4071691;29;20232;-62
2021/01/12 08:04:58;;;;;;;1.83;0.93;;;2.70;99.90;;;;;;4072279;29;20472;-62
2021/01/12 08:06:59;;;;;;;0.80;0.53;;;2.80;99.90;;;;;;4074653;29;20210;-61
2021/01/12 08:09:01;;;;;;;0.73;0.50;;;2.70;99.90;;;;;;4074365;29;20596;-62
2021/01/12 08:11:03;;;;;;;0.90;0.40;;;2.70;99.90;;;;;;4074668;29;20477;-62
2021/01/12 08:13:06;;;;;;;1.37;0.53;;;2.70;99.90;;;;;;4074827;29;20481;-61
2021/01/12 08:15:12;;;;;;;1.50;0.50;;;2.70;99.90;;;;;;4074737;29;20478;-61
2021/01/12 08:17:19;;;;;;;1.00;0.60;;;2.70;99.90;;;;;;4076319;29;20480;-62
2021/01/12 08:19:22;;;;;;;0.67;0.57;;;2.80;99.90;;;;;;4075695;29;20458;-62
2021/01/12 08:21:23;;;;;;;0.93;0.60;;;2.80;99.90;;;;;;4074312;29;20477;-62
2021/01/12 08:23:25;;;;;;;0.87;0.60;;;2.80;99.90;;;;;;4074461;29;20495;-56
2021/01/12 08:25:27;;;;;;;1.45;1.08;;;2.80;99.90;;;;;;4072889;29;20517;-59
2021/01/12 08:27:29;;;;;;;1.60;0.90;;;2.90;99.90;;;;;;4073908;29;20646;-59
2021/01/12 08:29:33;;;;;;;3.10;1.20;;;2.90;99.90;;;;;;4074184;29;20511;-57
2021/01/12 08:31:35;;;;;;;1.27;0.90;;;2.90;99.90;;;;;;4074770;29;20540;-57
2021/01/12 08:33:42;;;;;;;0.60;0.60;;;2.90;99.90;;;;;;4074944;29;20492;-57
2021/01/12 08:35:48;;;;;;;1.57;0.80;;;3.00;99.90;;;;;;4077756;29;20480;-57
2021/01/12 08:37:50;;;;;;;0.60;0.40;;;3.00;99.90;;;;;;4075652;29;20504;-56
2021/01/12 08:39:52;;;;;;;0.47;0.47;;;3.10;99.90;;;;;;4073955;29;20491;-59
2021/01/12 08:41:55;;;;;;;0.93;0.60;;;3.20;99.90;;;;;;4076024;29;20957;-56
2021/01/12 08:43:59;;;;;;;0.70;0.50;;;3.20;99.90;;;;;;4075302;29;21585;-57
2021/01/12 08:46:01;;;;;;;0.93;0.60;;;3.30;99.90;;;;;;4075519;29;20471;-56
2021/01/12 08:48:10;;;;;;;1.80;0.60;;;3.30;99.90;;;;;;4073785;29;20474;-57
2021/01/12 08:50:13;;;;;;;1.08;0.80;;;3.30;99.90;;;;;;4072599;29;20463;-56
2021/01/12 08:52:17;;;;;;;0.77;0.50;;;3.40;99.90;;;;;;4074124;29;20221;-57
2021/01/12 08:54:18;;;;;;;2.27;0.50;;;3.30;99.90;;;;;;4073435;29;20473;-56
2021/01/12 08:56:22;;;;;;;1.30;0.77;;;3.40;99.90;;;;;;4074994;29;20482;-57
2021/01/12 08:58:25;;;;;;;1.07;0.60;;;3.40;99.90;;;;;;4072842;29;20477;-56
2021/01/12 09:00:31;;;;;;;0.83;0.63;;;3.40;99.90;;;;;;4075950;29;20708;-56
2021/01/12 09:02:32;;;;;;;0.50;0.50;;;3.40;99.90;;;;;;4074052;29;20473;-56
2021/01/12 09:04:33;;;;;;;0.70;0.40;;;3.30;99.90;;;;;;4073536;29;20472;-59
2021/01/12 09:06:36;;;;;;;0.47;0.47;;;3.30;99.90;;;;;;4074603;29;20897;-56
2021/01/12 09:08:37;;;;;;;0.70;0.50;;;3.30;99.90;;;;;;4074137;29;20478;-57
2021/01/12 09:10:40;;;;;;;1.10;0.50;;;3.40;99.90;;;;;;4073893;29;20985;-56
2021/01/12 09:12:42;;;;;;;1.90;0.70;;;3.40;99.90;;;;;;4074147;29;20472;-57
2021/01/12 09:14:48;;;;;;;0.43;0.43;;;3.40;99.90;;;;;;4071449;29;20489;-56
2021/01/12 09:16:56;;;;;;;0.63;0.40;;;3.50;99.90;;;;;;4074914;29;20480;-56
2021/01/12 09:18:57;;;;;;;0.57;0.40;;;3.40;99.90;;;;;;4072623;29;20544;-57
2021/01/12 09:21:00;;;;;;;0.40;0.40;;;3.40;99.90;;;;;;4071095;29;20561;-58
2021/01/12 09:23:06;;;;;;;1.73;0.50;;;3.40;99.90;;;;;;4073282;29;20512;-56
2021/01/12 09:25:08;;;;;;;0.60;0.50;;;3.40;99.90;;;;;;4073569;29;20536;-56
2021/01/12 09:27:09;;;;;;;0.83;0.60;;;3.40;99.90;;;;;;4073587;29;20556;-59
2021/01/12 09:29:11;;;;;;;0.97;0.60;;;3.50;99.90;;;;;;4071225;29;20921;-59
2021/01/12 09:31:16;;;;;;;0.77;0.57;;;3.50;99.90;;;;;;4072824;29;20463;-56
2021/01/12 09:33:23;;;;;;;0.93;0.70;;;3.50;99.90;;;;;;4072615;29;20224;-56
2021/01/12 09:35:24;;;;;;;1.05;0.70;;;3.50;99.90;;;;;;4075468;29;20934;-57
2021/01/12 09:37:26;;;;;;;0.77;0.60;;;3.50;99.90;;;;;;4074000;29;20214;-56
2021/01/12 09:39:27;;;;;;;0.80;0.50;;;3.60;99.90;;;;;;4072697;29;20739;-56
2021/01/12 09:41:29;;;;;;;1.53;0.60;;;3.60;99.90;;;;;;4072362;29;21002;-57
2021/01/12 09:43:30;;;;;;;1.33;0.83;;;3.60;99.90;;;;;;4071966;29;20475;-57
2021/01/12 09:45:33;;;;;;;1.60;0.70;;;3.60;99.90;;;;;;4074910;29;20509;-57
2021/01/12 09:47:35;;;;;;;0.77;0.63;;;3.50;99.90;;;;;;4073203;29;20483;-57
2021/01/12 09:49:36;;;;;;;1.07;0.57;;;3.60;99.90;;;;;;4071899;29;20539;-57
2021/01/12 09:51:38;;;;;;;1.10;0.67;;;3.60;99.90;;;;;;4073513;29;20480;-57
2021/01/12 09:53:39;;;;;;;0.97;0.70;;;3.60;99.90;;;;;;4073706;29;20488;-56
2021/01/12 09:55:41;;;;;;;1.43;0.83;;;3.60;99.90;;;;;;4072515;29;20958;-57
2021/01/12 09:57:46;;;;;;;0.60;0.40;;;3.60;99.90;;;;;;4074070;29;20515;-57
2021/01/12 09:59:50;;;;;;;1.57;0.70;;;3.60;99.90;;;;;;4072528;29;20482;-57
2021/01/12 10:01:55;;;;;;;1.13;0.50;;;3.60;99.90;;;;;;4074182;29;21000;-57
2021/01/12 10:03:57;;;;;;;1.05;0.80;;;3.60;99.90;;;;;;4074594;29;20467;-58
2021/01/12 10:05:59;;;;;;;1.02;0.73;;;3.70;99.90;;;;;;4073602;29;20469;-57
2021/01/12 10:08:00;;;;;;;0.83;0.60;;;3.80;99.90;;;;;;4072916;29;20227;-57
2021/01/12 10:10:01;;;;;;;0.90;0.60;;;3.80;99.90;;;;;;4073345;29;20471;-59
2021/01/12 10:12:03;;;;;;;0.90;0.70;;;3.80;99.90;;;;;;4070140;29;20465;-57
2021/01/12 10:14:04;;;;;;;0.85;0.60;;;3.80;99.90;;;;;;4071476;29;20463;-57
2021/01/12 10:16:06;;;;;;;2.67;0.60;;;3.90;99.90;;;;;;4070622;29;20219;-59
2021/01/12 10:18:07;;;;;;;0.83;0.60;;;3.90;99.90;;;;;;4072196;29;20580;-58
2021/01/12 10:20:10;;;;;;;1.93;0.80;;;3.90;99.90;;;;;;4070790;29;20467;-58
2021/01/12 10:22:11;;;;;;;0.53;0.50;;;3.90;99.90;;;;;;4073458;29;20501;-58
2021/01/12 10:24:13;;;;;;;1.10;0.80;;;4.00;99.90;;;;;;4074297;29;20490;-58
2021/01/12 10:26:14;;;;;;;1.60;0.67;;;4.00;99.90;;;;;;4072479;29;21028;-58
2021/01/12 10:28:16;;;;;;;1.33;0.80;;;4.10;99.90;;;;;;4074717;29;20486;-58
2021/01/12 10:30:18;;;;;;;1.37;0.80;;;4.10;99.90;;;;;;4075110;29;20508;-58
2021/01/12 10:32:19;;;;;;;2.07;1.00;;;4.10;99.90;;;;;;4074247;29;21111;-58
2021/01/12 10:34:21;;;;;;;1.33;0.70;;;4.10;99.90;;;;;;4073221;29;20942;-57
2021/01/12 10:36:23;;;;;;;1.20;0.80;;;4.10;99.90;;;;;;4071837;29;20482;-58
2021/01/12 10:38:24;;;;;;;1.67;1.17;;;4.10;99.90;;;;;;4072485;29;20997;-58
2021/01/12 10:40:28;;;;;;;1.65;0.88;;;4.20;99.90;;;;;;4072370;29;20472;-57
2021/01/12 10:42:29;;;;;;;1.73;1.00;;;4.20;99.90;;;;;;4072797;29;20241;-57
2021/01/12 10:44:31;;;;;;;1.07;0.70;;;4.20;99.90;;;;;;4072592;29;20486;-57